Lower Longswamp, Pennsylvania
Current Conditions -  °F | °C
As of 9:15 AM on Saturday 22 Nov 2014 (Local Time) from KXLL Reporting Station
Clear Clear  
Wind Chill: 30°   Ceiling: Unl
Heat Index: 30°   Visibility: 10mi
Dew Point: 14°   Wind: 3mph
Humidity: 51%   Direction: 240°WSW
Pressure: 30.47"   Gusts: NA
Location:  40.4939°N, 75.6842°W
Report Text: KXLL 221415Z AUTO 24003KT 10SM CLR M01/M10 A3047 RMK AO2
Loading
Personal Weather Stations






























Interactive Weather Map New forecast layout! Learn more

10-Day Weather Forecast

Advertisements
Track Severe Weather on mobile